createdAt,value
2017-11-07T00:00:10.751Z,7.40
2017-11-07T00:02:38.236Z,7.40
2017-11-07T00:05:06.476Z,7.40
2017-11-07T00:07:33.972Z,7.40
2017-11-07T00:10:02.220Z,7.30
2017-11-07T00:12:29.940Z,7.30
2017-11-07T00:14:57.417Z,7.30
2017-11-07T00:17:24.907Z,7.30
2017-11-07T00:19:52.380Z,7.20
2017-11-07T00:22:20.625Z,7.10
2017-11-07T00:24:48.219Z,7.10
2017-11-07T00:27:16.464Z,7.00
2017-11-07T00:29:43.947Z,7.00
2017-11-07T00:32:12.196Z,7.00
2017-11-07T00:34:39.689Z,6.90
2017-11-07T00:37:07.936Z,6.80
2017-11-07T00:39:35.407Z,6.80
2017-11-07T00:42:02.900Z,6.80
2017-11-07T00:44:30.375Z,6.80
2017-11-07T00:46:57.872Z,6.80
2017-11-07T00:49:25.354Z,6.80
2017-11-07T00:51:53.617Z,6.70
2017-11-07T00:54:21.093Z,6.70
2017-11-07T00:56:49.332Z,6.70
2017-11-07T00:59:16.831Z,6.70
2017-11-07T01:01:45.095Z,6.70
2017-11-07T01:04:13.347Z,6.60
2017-11-07T01:06:40.820Z,6.60
2017-11-07T01:09:09.096Z,6.60
2017-11-07T01:11:36.576Z,6.60
2017-11-07T01:14:04.824Z,6.60
2017-11-07T01:16:32.323Z,6.50
2017-11-07T01:18:59.821Z,6.60
2017-11-07T01:21:27.311Z,6.50
2017-11-07T01:23:54.780Z,6.50
2017-11-07T01:26:23.036Z,6.50
2017-11-07T01:28:50.507Z,6.50
2017-11-07T01:31:18.762Z,6.50
2017-11-07T01:33:46.248Z,6.50
2017-11-07T01:36:14.492Z,6.50
2017-11-07T01:38:42.031Z,6.50
2017-11-07T01:41:09.503Z,6.50
2017-11-07T01:43:36.972Z,6.50
2017-11-07T09:00:15.159Z,5.50
2017-11-07T09:02:42.662Z,5.60
2017-11-07T09:05:11.015Z,5.90
2017-11-07T09:07:38.493Z,5.90
2017-11-07T09:10:06.765Z,6.20
2017-11-07T09:12:35.008Z,6.30
2017-11-07T09:15:02.509Z,6.30
2017-11-07T09:17:30.773Z,6.60
2017-11-07T09:19:59.048Z,6.70
2017-11-07T09:22:27.292Z,6.60
2017-11-07T09:24:54.775Z,6.60
2017-11-07T09:27:22.355Z,6.50
2017-11-07T09:29:50.604Z,6.70
2017-11-07T09:32:18.100Z,6.70
2017-11-07T09:34:45.580Z,6.80
2017-11-07T09:37:13.083Z,6.90
2017-11-07T09:39:40.566Z,6.90
2017-11-07T09:42:08.809Z,7.10
2017-11-07T09:44:36.326Z,7.10
2017-11-07T09:47:03.799Z,7.20
2017-11-07T09:49:31.316Z,7.30
2017-11-07T09:51:59.565Z,7.50
2017-11-07T09:54:27.094Z,7.50
2017-11-07T09:56:54.567Z,7.60
2017-11-07T09:59:22.048Z,7.70
2017-11-07T10:01:49.569Z,7.80
2017-11-07T10:04:17.086Z,7.90
2017-11-07T10:06:45.348Z,7.90
2017-11-07T10:09:12.824Z,7.90
2017-11-07T10:11:41.095Z,8.20
2017-11-07T10:14:09.352Z,8.30
2017-11-07T10:16:36.827Z,8.30
2017-11-07T10:19:05.084Z,8.40
2017-11-07T10:21:32.563Z,8.40
2017-11-07T10:24:00.828Z,8.50
2017-11-07T10:26:28.316Z,8.50
2017-11-07T10:28:55.863Z,8.50
2017-11-07T10:31:24.111Z,8.50
2017-11-07T10:33:51.608Z,8.50
2017-11-07T10:36:19.184Z,8.60
2017-11-07T10:38:46.683Z,8.60
2017-11-07T10:41:14.190Z,8.60
2017-11-07T10:43:41.669Z,8.80
2017-11-07T10:46:09.171Z,8.90
2017-11-07T10:48:37.429Z,8.70
2017-11-07T10:51:04.907Z,8.70
2017-11-07T10:53:32.393Z,8.80
2017-11-07T10:56:00.752Z,8.50
2017-11-07T10:58:29.012Z,8.50
2017-11-07T11:00:56.479Z,8.50
2017-11-07T11:03:24.156Z,8.50
2017-11-07T11:05:52.408Z,8.50
2017-11-07T11:08:19.900Z,8.40
2017-11-07T11:10:48.170Z,8.50
2017-11-07T11:13:16.790Z,8.50
2017-11-07T11:15:44.295Z,8.50
2017-11-07T11:18:11.771Z,8.70
2017-11-07T11:20:40.146Z,8.80
2017-11-07T11:23:08.405Z,8.80
2017-11-07T11:25:35.888Z,8.80
2017-11-07T11:28:04.156Z,8.80
2017-11-07T11:30:32.396Z,8.70
2017-11-07T11:32:59.895Z,8.70
2017-11-07T11:35:28.132Z,8.70
2017-11-07T11:37:55.648Z,8.70
2017-11-07T11:40:23.117Z,8.80
2017-11-07T11:42:50.640Z,8.70
2017-11-07T11:45:18.891Z,8.60
2017-11-07T11:47:46.412Z,8.60
2017-11-07T11:50:13.892Z,8.70
2017-11-07T11:52:41.359Z,8.70
2017-11-07T11:55:08.851Z,8.70
2017-11-07T11:57:37.096Z,8.70
2017-11-07T12:00:04.588Z,8.70
2017-11-07T12:02:32.854Z,8.80
2017-11-07T12:05:01.154Z,8.80
2017-11-07T12:07:29.436Z,9.00
2017-11-07T12:09:56.919Z,8.90
2017-11-07T12:12:24.411Z,8.90
2017-11-07T12:14:51.913Z,9.00
2017-11-07T12:17:19.415Z,9.00
2017-11-07T12:19:46.895Z,9.00
2017-11-07T12:22:14.383Z,8.90
2017-11-07T12:24:41.869Z,8.90
2017-11-07T12:27:09.343Z,8.90
2017-11-07T12:29:36.975Z,9.00
2017-11-07T12:32:04.455Z,9.00
2017-11-07T12:34:31.952Z,9.00
2017-11-07T12:36:59.475Z,9.00
2017-11-07T12:39:26.972Z,9.00
2017-11-07T12:41:54.444Z,9.00
2017-11-07T12:44:22.679Z,8.90
2017-11-07T12:46:50.168Z,8.90
2017-11-07T12:49:18.416Z,8.80
2017-11-07T12:51:57.604Z,8.70
2017-11-07T12:54:25.080Z,8.80
2017-11-07T12:56:52.576Z,8.80
2017-11-07T12:59:20.046Z,8.80
2017-11-07T13:01:47.515Z,8.70
2017-11-07T13:04:15.787Z,8.70
2017-11-07T13:06:44.036Z,8.80
2017-11-07T13:09:11.607Z,8.80
2017-11-07T13:11:39.089Z,8.80
2017-11-07T13:14:07.353Z,8.70
2017-11-07T13:16:34.827Z,8.70
2017-11-07T13:19:03.081Z,8.70
2017-11-07T13:21:30.569Z,8.70
2017-11-07T13:23:58.040Z,8.60
2017-11-07T13:26:25.532Z,8.70
2017-11-07T13:28:53.000Z,8.60
2017-11-07T13:31:26.304Z,8.60
2017-11-07T13:33:54.552Z,8.60
2017-11-07T13:36:22.036Z,8.60
2017-11-07T13:38:49.531Z,8.60
2017-11-07T13:41:17.027Z,8.60
2017-11-07T13:43:44.512Z,8.60
2017-11-07T13:46:11.988Z,8.60
2017-11-07T13:48:40.301Z,8.50
2017-11-07T13:51:07.802Z,8.50
2017-11-07T13:53:35.281Z,8.50
2017-11-07T13:56:03.540Z,8.60
2017-11-07T13:58:31.017Z,8.60
2017-11-07T14:00:59.279Z,8.70
2017-11-07T14:03:26.775Z,8.70
2017-11-07T14:05:54.272Z,8.70
2017-11-07T14:08:21.748Z,8.70
2017-11-07T14:10:49.225Z,8.60
2017-11-07T14:13:17.480Z,8.60
2017-11-07T14:15:44.962Z,8.60
2017-11-07T14:18:13.224Z,8.60
2017-11-07T14:20:40.705Z,8.60
2017-11-07T14:23:08.983Z,8.70
2017-11-07T14:25:37.227Z,8.70
2017-11-07T14:28:04.697Z,8.70
2017-11-07T14:30:32.185Z,8.60
2017-11-07T14:32:59.689Z,8.60
2017-11-07T14:35:27.180Z,8.70
2017-11-07T14:37:55.460Z,8.50
2017-11-07T14:40:23.771Z,8.50
2017-11-07T14:42:51.240Z,8.50
2017-11-07T14:45:18.712Z,8.60
2017-11-07T14:47:46.209Z,8.60
2017-11-07T14:50:14.472Z,8.60
2017-11-07T14:52:41.965Z,8.60
2017-11-07T14:55:10.203Z,8.50
2017-11-07T14:57:37.704Z,8.50
2017-11-07T15:00:05.180Z,8.50
2017-11-07T15:02:32.660Z,8.50
2017-11-07T15:05:00.148Z,8.50
2017-11-07T15:07:27.624Z,8.50
2017-11-07T15:09:55.888Z,8.50
2017-11-07T15:12:24.132Z,8.50
2017-11-07T15:14:51.634Z,8.50
2017-11-07T15:17:19.881Z,8.50
2017-11-07T15:19:47.363Z,8.50
2017-11-07T15:22:15.619Z,8.40
2017-11-07T15:24:43.104Z,8.40
2017-11-07T15:27:11.366Z,8.30
2017-11-07T15:29:39.639Z,8.30
2017-11-07T15:32:07.137Z,8.30
2017-11-07T15:34:34.614Z,8.30
2017-11-07T15:37:02.099Z,8.30
2017-11-07T15:39:29.595Z,8.30
2017-11-07T15:41:57.857Z,8.30
2017-11-07T15:44:26.120Z,8.30
2017-11-07T15:46:53.584Z,8.20
2017-11-07T15:49:21.079Z,8.30
2017-11-07T15:51:48.575Z,8.30
2017-11-07T15:54:16.056Z,8.30
2017-11-07T15:56:43.544Z,8.30
2017-11-07T15:59:11.018Z,8.30
2017-11-07T16:01:38.513Z,8.30
2017-11-07T16:04:05.991Z,8.40
2017-11-07T16:06:33.568Z,8.30
2017-11-07T16:09:01.808Z,8.30
2017-11-07T16:11:29.288Z,8.30
2017-11-07T16:13:57.553Z,8.30
2017-11-07T16:16:25.792Z,8.30
2017-11-07T16:18:53.279Z,8.20
2017-11-07T16:21:20.766Z,8.30
2017-11-07T16:23:49.024Z,8.30
2017-11-07T16:26:16.515Z,8.30
2017-11-07T16:28:44.006Z,8.30
2017-11-07T16:31:11.508Z,8.30
2017-11-07T16:33:38.997Z,8.30
2017-11-07T16:36:06.498Z,8.30
2017-11-07T16:38:34.003Z,8.40
2017-11-07T16:41:02.250Z,8.40
2017-11-07T16:43:29.740Z,8.30
2017-11-07T16:45:57.975Z,8.40
2017-11-07T16:48:25.510Z,8.30
2017-11-07T16:50:53.055Z,8.40
2017-11-07T16:53:20.548Z,8.40
2017-11-07T16:55:48.037Z,8.40
2017-11-07T16:58:16.280Z,8.50
2017-11-07T17:00:44.564Z,8.50
2017-11-07T17:03:12.072Z,8.50
2017-11-07T17:05:39.576Z,8.50
2017-11-07T17:08:07.061Z,8.50
2017-11-07T17:10:35.324Z,8.50
2017-11-07T17:13:02.808Z,8.50
2017-11-07T17:15:31.056Z,8.50
2017-11-07T17:17:58.551Z,8.40
2017-11-07T17:20:26.787Z,8.50
2017-11-07T17:22:54.279Z,8.50
2017-11-07T17:25:22.536Z,8.50
2017-11-07T17:27:50.039Z,8.50
2017-11-07T17:30:17.551Z,8.50
2017-11-07T17:32:45.028Z,8.40
2017-11-07T17:35:13.333Z,8.30
2017-11-07T17:37:40.809Z,8.30
2017-11-07T17:40:08.308Z,8.30
2017-11-07T17:42:36.583Z,8.30
2017-11-07T17:45:04.058Z,8.20
2017-11-07T17:47:32.309Z,8.30
2017-11-07T17:50:00.605Z,8.30
2017-11-07T17:52:28.876Z,8.30
2017-11-07T17:54:57.148Z,8.30
2017-11-07T17:57:25.419Z,8.30
2017-11-07T19:35:54.248Z,7.60
2017-11-07T19:38:21.740Z,7.60
2017-11-07T19:40:49.255Z,7.60
2017-11-07T19:43:16.736Z,7.60
2017-11-07T19:45:44.215Z,7.70
2017-11-07T19:48:12.475Z,7.70
2017-11-07T19:50:39.984Z,7.70
2017-11-07T19:53:07.484Z,7.80
2017-11-07T19:55:34.971Z,7.80
2017-11-07T19:58:03.248Z,7.70
2017-11-07T20:00:31.487Z,7.70
2017-11-07T20:02:58.964Z,7.70
2017-11-07T20:05:26.455Z,7.70
2017-11-07T20:07:54.743Z,7.70
2017-11-07T20:10:22.236Z,7.70
2017-11-07T20:12:49.727Z,7.80
2017-11-07T20:15:17.231Z,7.70
2017-11-07T20:17:44.715Z,7.70
2017-11-07T20:20:12.203Z,7.70
2017-11-07T20:22:39.686Z,7.60
2017-11-07T20:25:07.180Z,7.60
2017-11-07T20:27:34.668Z,7.60
2017-11-07T20:30:02.997Z,7.50
2017-11-07T20:32:30.517Z,7.40
2017-11-07T20:34:58.025Z,7.50
2017-11-07T20:37:25.531Z,7.50
2017-11-07T20:39:54.536Z,7.40
2017-11-07T20:42:22.107Z,7.40
2017-11-07T20:44:50.365Z,7.40
2017-11-07T20:47:18.620Z,7.40
2017-11-07T20:49:46.115Z,7.40
2017-11-07T20:52:13.616Z,7.40
2017-11-07T20:54:41.088Z,7.30
2017-11-07T20:57:08.610Z,7.30
2017-11-07T20:59:36.102Z,7.30
2017-11-07T21:02:03.662Z,7.30
2017-11-07T21:04:31.135Z,7.30
2017-11-07T21:06:58.667Z,7.30
2017-11-07T21:09:26.157Z,7.20
2017-11-07T21:11:53.634Z,7.20
2017-11-07T21:14:21.913Z,7.30
2017-11-07T21:16:50.184Z,7.30
2017-11-07T21:19:18.444Z,7.30
2017-11-07T21:21:45.921Z,7.30
2017-11-07T21:24:14.201Z,7.40
2017-11-07T21:26:42.448Z,7.40
2017-11-07T21:29:09.933Z,7.40
2017-11-07T21:31:38.259Z,7.40
2017-11-07T21:34:05.740Z,7.40
2017-11-07T21:36:33.227Z,7.50
2017-11-07T21:39:01.488Z,7.50
2017-11-07T21:41:29.019Z,7.50
2017-11-07T21:43:56.488Z,7.60
2017-11-07T21:46:23.981Z,7.60
2017-11-07T21:48:52.232Z,7.60
2017-11-07T21:51:19.708Z,7.60
2017-11-07T21:53:47.967Z,7.70
2017-11-07T21:56:15.448Z,7.60
2017-11-07T21:58:43.711Z,7.60
2017-11-07T22:01:12.021Z,7.60
2017-11-07T22:03:39.500Z,7.60
2017-11-07T22:06:06.991Z,7.70
2017-11-07T22:08:34.472Z,7.60
2017-11-07T22:11:02.748Z,7.70
2017-11-07T22:13:30.997Z,7.70
2017-11-07T22:15:58.500Z,7.70
2017-11-07T22:18:26.747Z,7.60
2017-11-07T22:20:54.223Z,7.60
2017-11-07T22:23:26.299Z,7.60
2017-11-07T22:25:53.786Z,7.60
2017-11-07T22:28:21.278Z,7.60
2017-11-07T22:30:48.798Z,7.50
2017-11-07T22:33:16.299Z,7.60
2017-11-07T22:35:43.773Z,7.70
2017-11-07T22:38:12.036Z,7.70
2017-11-07T22:40:39.532Z,7.70
2017-11-07T22:43:07.774Z,7.70
2017-11-07T22:45:35.295Z,7.70
2017-11-07T22:48:02.772Z,7.70
2017-11-07T22:50:30.264Z,7.70
2017-11-07T22:52:58.514Z,7.60
2017-11-07T22:55:25.997Z,7.60
2017-11-07T22:57:53.519Z,7.60
2017-11-07T23:00:21.006Z,7.60
2017-11-07T23:02:48.500Z,7.60
2017-11-07T23:05:15.993Z,7.60
2017-11-07T23:07:43.491Z,7.50
2017-11-07T23:10:11.735Z,7.50
2017-11-07T23:12:39.219Z,7.50
2017-11-07T23:15:06.713Z,7.50
2017-11-07T23:17:34.196Z,7.50
2017-11-07T23:20:01.685Z,7.50
2017-11-07T23:22:29.159Z,7.50
2017-11-07T23:24:57.439Z,7.40
2017-11-07T23:27:25.693Z,7.40
2017-11-07T23:29:53.172Z,7.40
2017-11-07T23:32:21.428Z,7.30
2017-11-07T23:34:48.941Z,7.30
2017-11-07T23:37:16.432Z,7.40
2017-11-07T23:39:43.904Z,7.30
2017-11-07T23:42:11.399Z,7.30
2017-11-07T23:44:38.887Z,7.30
2017-11-07T23:47:06.370Z,7.30
2017-11-07T23:49:33.874Z,7.30
2017-11-07T23:52:02.112Z,7.30
2017-11-07T23:54:29.606Z,7.30
2017-11-07T23:56:57.904Z,7.20
2017-11-07T23:59:25.400Z,7.20
